sensor_id;sensor_type;location;lat;lon;timestamp;temperature;humidity
39919;DHT22;25589;51.552;13.424;2023-05-15T00:01:04;14.20;99.90
39919;DHT22;25589;51.552;13.424;2023-05-15T00:03:30;14.20;99.90
39919;DHT22;25589;51.552;13.424;2023-05-15T00:05:56;14.10;99.90
39919;DHT22;25589;51.552;13.424;2023-05-15T00:08:22;14.10;99.90
39919;DHT22;25589;51.552;13.424;2023-05-15T00:10:47;14.00;99.90
39919;DHT22;25589;51.552;13.424;2023-05-15T00:13:13;14.00;99.90
39919;DHT22;25589;51.552;13.424;2023-05-15T00:15:38;13.90;99.90
39919;DHT22;25589;51.552;13.424;2023-05-15T00:18:04;13.50;99.90
39919;DHT22;25589;51.552;13.424;2023-05-15T00:20:30;13.80;99.90
39919;DHT22;25589;51.552;13.424;2023-05-15T00:22:55;14.10;99.90
39919;DHT22;25589;51.552;13.424;2023-05-15T00:25:22;13.60;99.90
39919;DHT22;25589;51.552;13.424;2023-05-15T00:27:48;13.60;99.90
39919;DHT22;25589;51.552;13.424;2023-05-15T00:30:13;13.60;99.90
39919;DHT22;25589;51.552;13.424;2023-05-15T00:32:39;13.50;99.90
39919;DHT22;25589;51.552;13.424;2023-05-15T00:35:05;13.50;99.90
39919;DHT22;25589;51.552;13.424;2023-05-15T00:37:31;13.20;99.90
39919;DHT22;25589;51.552;13.424;2023-05-15T00:39:57;13.40;99.90
39919;DHT22;25589;51.552;13.424;2023-05-15T00:42:24;13.80;99.90
39919;DHT22;25589;51.552;13.424;2023-05-15T00:44:51;13.20;99.90
39919;DHT22;25589;51.552;13.424;2023-05-15T00:47:19;13.20;99.90
39919;DHT22;25589;51.552;13.424;2023-05-15T00:49:46;12.60;99.90
39919;DHT22;25589;51.552;13.424;2023-05-15T00:52:12;13.00;99.90
39919;DHT22;25589;51.552;13.424;2023-05-15T00:54:38;13.00;99.90
39919;DHT22;25589;51.552;13.424;2023-05-15T00:57:04;13.30;99.90
39919;DHT22;25589;51.552;13.424;2023-05-15T00:59:31;12.80;99.90
39919;DHT22;25589;51.552;13.424;2023-05-15T01:01:57;12.80;99.90
39919;DHT22;25589;51.552;13.424;2023-05-15T01:04:23;12.80;99.90
39919;DHT22;25589;51.552;13.424;2023-05-15T01:06:49;13.00;99.90
39919;DHT22;25589;51.552;13.424;2023-05-15T01:09:19;12.70;99.90
39919;DHT22;25589;51.552;13.424;2023-05-15T01:11:49;12.70;99.90
39919;DHT22;25589;51.552;13.424;2023-05-15T01:14:15;12.80;99.90
39919;DHT22;25589;51.552;13.424;2023-05-15T01:16:40;12.70;99.90
39919;DHT22;25589;51.552;13.424;2023-05-15T01:19:06;12.70;99.90
39919;DHT22;25589;51.552;13.424;2023-05-15T01:24:37;12.50;99.90
39919;DHT22;25589;51.552;13.424;2023-05-15T01:27:09;12.50;99.90
39919;DHT22;25589;51.552;13.424;2023-05-15T01:29:50;12.40;99.90
39919;DHT22;25589;51.552;13.424;2023-05-15T01:32:23;13.00;99.90
39919;DHT22;25589;51.552;13.424;2023-05-15T01:37:27;12.50;99.90
39919;DHT22;25589;51.552;13.424;2023-05-15T01:39:59;12.30;99.90
39919;DHT22;25589;51.552;13.424;2023-05-15T01:42:33;12.30;99.90
39919;DHT22;25589;51.552;13.424;2023-05-15T01:45:02;12.30;99.90
39919;DHT22;25589;51.552;13.424;2023-05-15T01:47:35;12.30;99.90
39919;DHT22;25589;51.552;13.424;2023-05-15T01:50:03;12.30;99.90
39919;DHT22;25589;51.552;13.424;2023-05-15T01:52:32;12.40;99.90
39919;DHT22;25589;51.552;13.424;2023-05-15T01:55:03;12.20;99.90
39919;DHT22;25589;51.552;13.424;2023-05-15T01:57:30;12.50;99.90
39919;DHT22;25589;51.552;13.424;2023-05-15T01:59:57;12.30;99.90
39919;DHT22;25589;51.552;13.424;2023-05-15T02:02:23;12.10;99.90
39919;DHT22;25589;51.552;13.424;2023-05-15T02:04:49;12.10;99.90
39919;DHT22;25589;51.552;13.424;2023-05-15T02:07:16;12.70;99.90
39919;DHT22;25589;51.552;13.424;2023-05-15T02:09:42;12.10;99.90
39919;DHT22;25589;51.552;13.424;2023-05-15T02:12:09;12.00;99.90
39919;DHT22;25589;51.552;13.424;2023-05-15T02:14:36;12.00;99.90
39919;DHT22;25589;51.552;13.424;2023-05-15T02:17:01;12.00;99.90
39919;DHT22;25589;51.552;13.424;2023-05-15T02:19:27;12.30;99.90
39919;DHT22;25589;51.552;13.424;2023-05-15T02:21:53;11.90;99.90
39919;DHT22;25589;51.552;13.424;2023-05-15T02:24:19;11.80;99.90
39919;DHT22;25589;51.552;13.424;2023-05-15T02:29:30;11.80;99.90
39919;DHT22;25589;51.552;13.424;2023-05-15T02:32:28;11.70;99.90
39919;DHT22;25589;51.552;13.424;2023-05-15T02:35:18;11.60;99.90
39919;DHT22;25589;51.552;13.424;2023-05-15T02:40:15;11.90;99.90
39919;DHT22;25589;51.552;13.424;2023-05-15T02:42:42;11.60;99.90
39919;DHT22;25589;51.552;13.424;2023-05-15T02:47:36;12.30;99.90
39919;DHT22;25589;51.552;13.424;2023-05-15T02:52:32;11.60;99.90
39919;DHT22;25589;51.552;13.424;2023-05-15T02:54:59;11.50;99.90
39919;DHT22;25589;51.552;13.424;2023-05-15T02:57:25;11.40;99.90
39919;DHT22;25589;51.552;13.424;2023-05-15T02:59:52;11.10;99.90
39919;DHT22;25589;51.552;13.424;2023-05-15T03:02:17;11.40;99.90
39919;DHT22;25589;51.552;13.424;2023-05-15T03:04:43;11.80;99.90
39919;DHT22;25589;51.552;13.424;2023-05-15T03:07:08;11.20;99.90
39919;DHT22;25589;51.552;13.424;2023-05-15T03:09:34;11.20;99.90
39919;DHT22;25589;51.552;13.424;2023-05-15T03:12:00;11.40;99.90
39919;DHT22;25589;51.552;13.424;2023-05-15T03:14:25;11.40;99.90
39919;DHT22;25589;51.552;13.424;2023-05-15T03:16:51;11.30;99.90
39919;DHT22;25589;51.552;13.424;2023-05-15T03:19:16;11.30;99.90
39919;DHT22;25589;51.552;13.424;2023-05-15T03:21:43;11.30;99.90
39919;DHT22;25589;51.552;13.424;2023-05-15T03:24:08;11.20;99.90
39919;DHT22;25589;51.552;13.424;2023-05-15T03:26:34;10.80;99.90
39919;DHT22;25589;51.552;13.424;2023-05-15T03:29:00;12.00;99.90
39919;DHT22;25589;51.552;13.424;2023-05-15T03:31:26;12.40;99.90
39919;DHT22;25589;51.552;13.424;2023-05-15T03:33:51;11.20;99.90
39919;DHT22;25589;51.552;13.424;2023-05-15T03:36:17;11.30;99.90
39919;DHT22;25589;51.552;13.424;2023-05-15T03:38:43;11.20;99.90
39919;DHT22;25589;51.552;13.424;2023-05-15T03:41:11;11.20;99.90
39919;DHT22;25589;51.552;13.424;2023-05-15T03:43:37;10.20;99.90
39919;DHT22;25589;51.552;13.424;2023-05-15T03:46:02;11.10;99.90
39919;DHT22;25589;51.552;13.424;2023-05-15T03:48:28;11.10;99.90
39919;DHT22;25589;51.552;13.424;2023-05-15T03:50:54;11.10;99.90
39919;DHT22;25589;51.552;13.424;2023-05-15T03:55:46;11.60;99.90
39919;DHT22;25589;51.552;13.424;2023-05-15T03:58:11;11.10;99.90
39919;DHT22;25589;51.552;13.424;2023-05-15T04:00:37;11.30;99.90
39919;DHT22;25589;51.552;13.424;2023-05-15T04:03:02;11.10;99.90
39919;DHT22;25589;51.552;13.424;2023-05-15T04:05:28;11.10;99.90
39919;DHT22;25589;51.552;13.424;2023-05-15T04:07:53;11.10;99.90
39919;DHT22;25589;51.552;13.424;2023-05-15T04:10:19;11.20;99.90
39919;DHT22;25589;51.552;13.424;2023-05-15T04:12:45;11.20;99.90
39919;DHT22;25589;51.552;13.424;2023-05-15T04:15:17;11.40;99.90
39919;DHT22;25589;51.552;13.424;2023-05-15T04:17:44;11.50;99.90
39919;DHT22;25589;51.552;13.424;2023-05-15T04:20:12;11.20;99.90
39919;DHT22;25589;51.552;13.424;2023-05-15T04:22:40;11.20;99.90
39919;DHT22;25589;51.552;13.424;2023-05-15T04:25:05;11.60;99.90
39919;DHT22;25589;51.552;13.424;2023-05-15T04:27:32;11.20;99.90
39919;DHT22;25589;51.552;13.424;2023-05-15T04:29:57;11.60;99.90
39919;DHT22;25589;51.552;13.424;2023-05-15T04:32:23;11.40;99.90
39919;DHT22;25589;51.552;13.424;2023-05-15T04:34:48;11.40;99.90
39919;DHT22;25589;51.552;13.424;2023-05-15T04:37:14;11.50;99.90
39919;DHT22;25589;51.552;13.424;2023-05-15T04:39:40;11.50;99.90
39919;DHT22;25589;51.552;13.424;2023-05-15T04:42:05;11.50;99.90
39919;DHT22;25589;51.552;13.424;2023-05-15T04:44:31;11.60;99.90
39919;DHT22;25589;51.552;13.424;2023-05-15T04:46:57;11.90;99.90
39919;DHT22;25589;51.552;13.424;2023-05-15T04:49:23;11.80;99.90
39919;DHT22;25589;51.552;13.424;2023-05-15T04:51:49;11.80;99.90
39919;DHT22;25589;51.552;13.424;2023-05-15T04:54:14;11.90;99.90
39919;DHT22;25589;51.552;13.424;2023-05-15T04:56:40;11.90;99.90
39919;DHT22;25589;51.552;13.424;2023-05-15T04:59:05;12.10;99.90
39919;DHT22;25589;51.552;13.424;2023-05-15T05:01:31;12.20;99.90
39919;DHT22;25589;51.552;13.424;2023-05-15T05:03:56;12.30;99.90
39919;DHT22;25589;51.552;13.424;2023-05-15T05:06:22;12.50;99.90
39919;DHT22;25589;51.552;13.424;2023-05-15T05:08:48;12.50;99.90
39919;DHT22;25589;51.552;13.424;2023-05-15T05:11:13;12.60;99.90
39919;DHT22;25589;51.552;13.424;2023-05-15T05:13:39;13.10;99.90
39919;DHT22;25589;51.552;13.424;2023-05-15T05:16:06;12.80;99.90
39919;DHT22;25589;51.552;13.424;2023-05-15T05:18:32;12.80;99.90
39919;DHT22;25589;51.552;13.424;2023-05-15T05:21:04;13.00;99.90
39919;DHT22;25589;51.552;13.424;2023-05-15T05:23:30;13.00;99.90
39919;DHT22;25589;51.552;13.424;2023-05-15T05:25:56;13.00;99.90
39919;DHT22;25589;51.552;13.424;2023-05-15T05:28:21;13.10;99.90
39919;DHT22;25589;51.552;13.424;2023-05-15T05:30:47;13.00;99.90
39919;DHT22;25589;51.552;13.424;2023-05-15T05:33:13;12.90;99.90
39919;DHT22;25589;51.552;13.424;2023-05-15T05:35:39;13.30;99.90
39919;DHT22;25589;51.552;13.424;2023-05-15T05:38:05;13.30;99.90
39919;DHT22;25589;51.552;13.424;2023-05-15T05:40:30;13.60;99.90
39919;DHT22;25589;51.552;13.424;2023-05-15T05:43:00;13.40;99.90
39919;DHT22;25589;51.552;13.424;2023-05-15T05:45:26;13.50;99.90
39919;DHT22;25589;51.552;13.424;2023-05-15T05:47:53;13.60;99.90
39919;DHT22;25589;51.552;13.424;2023-05-15T05:50:19;13.70;99.90
39919;DHT22;25589;51.552;13.424;2023-05-15T05:52:45;13.70;99.90
39919;DHT22;25589;51.552;13.424;2023-05-15T05:55:10;13.90;99.90
39919;DHT22;25589;51.552;13.424;2023-05-15T05:57:36;13.90;99.90
39919;DHT22;25589;51.552;13.424;2023-05-15T06:00:02;14.00;99.90
39919;DHT22;25589;51.552;13.424;2023-05-15T06:02:35;13.40;99.90
39919;DHT22;25589;51.552;13.424;2023-05-15T06:05:01;14.00;99.90
39919;DHT22;25589;51.552;13.424;2023-05-15T06:07:27;14.00;99.90
39919;DHT22;25589;51.552;13.424;2023-05-15T06:09:52;14.00;99.90
39919;DHT22;25589;51.552;13.424;2023-05-15T06:12:18;14.20;99.90
39919;DHT22;25589;51.552;13.424;2023-05-15T06:14:43;14.20;99.90
39919;DHT22;25589;51.552;13.424;2023-05-15T06:17:09;14.20;99.90
39919;DHT22;25589;51.552;13.424;2023-05-15T06:19:35;14.30;99.90
39919;DHT22;25589;51.552;13.424;2023-05-15T06:22:00;13.80;99.90
39919;DHT22;25589;51.552;13.424;2023-05-15T06:24:26;14.90;99.90
39919;DHT22;25589;51.552;13.424;2023-05-15T06:26:52;14.40;99.90
39919;DHT22;25589;51.552;13.424;2023-05-15T06:29:17;14.50;99.90
39919;DHT22;25589;51.552;13.424;2023-05-15T06:31:43;14.60;99.90
39919;DHT22;25589;51.552;13.424;2023-05-15T06:34:09;14.60;99.90
39919;DHT22;25589;51.552;13.424;2023-05-15T06:36:34;14.80;99.90
39919;DHT22;25589;51.552;13.424;2023-05-15T06:39:00;14.50;99.90
39919;DHT22;25589;51.552;13.424;2023-05-15T06:41:25;14.50;99.90
39919;DHT22;25589;51.552;13.424;2023-05-15T06:43:51;14.60;99.90
39919;DHT22;25589;51.552;13.424;2023-05-15T06:46:16;14.70;99.90
39919;DHT22;25589;51.552;13.424;2023-05-15T06:48:44;14.90;99.90
39919;DHT22;25589;51.552;13.424;2023-05-15T06:51:09;15.00;99.90
39919;DHT22;25589;51.552;13.424;2023-05-15T06:53:35;15.00;99.90
39919;DHT22;25589;51.552;13.424;2023-05-15T06:56:01;15.10;99.90
39919;DHT22;25589;51.552;13.424;2023-05-15T06:58:26;14.90;99.90
39919;DHT22;25589;51.552;13.424;2023-05-15T07:00:52;15.20;99.90
39919;DHT22;25589;51.552;13.424;2023-05-15T07:03:17;15.30;99.90
39919;DHT22;25589;51.552;13.424;2023-05-15T07:05:43;15.40;99.90
39919;DHT22;25589;51.552;13.424;2023-05-15T07:10:35;15.40;99.90
39919;DHT22;25589;51.552;13.424;2023-05-15T07:13:01;15.60;99.90
39919;DHT22;25589;51.552;13.424;2023-05-15T07:15:26;15.60;99.90
39919;DHT22;25589;51.552;13.424;2023-05-15T07:17:52;15.60;99.90
39919;DHT22;25589;51.552;13.424;2023-05-15T07:20:18;15.70;99.90
39919;DHT22;25589;51.552;13.424;2023-05-15T07:22:43;14.90;99.90
39919;DHT22;25589;51.552;13.424;2023-05-15T07:25:09;15.50;99.90
39919;DHT22;25589;51.552;13.424;2023-05-15T07:27:35;15.40;99.90
39919;DHT22;25589;51.552;13.424;2023-05-15T07:30:01;15.60;99.90
39919;DHT22;25589;51.552;13.424;2023-05-15T07:32:28;15.40;99.90
39919;DHT22;25589;51.552;13.424;2023-05-15T07:34:54;15.30;99.90
39919;DHT22;25589;51.552;13.424;2023-05-15T07:37:20;15.60;99.90
39919;DHT22;25589;51.552;13.424;2023-05-15T07:39:46;15.40;99.90
39919;DHT22;25589;51.552;13.424;2023-05-15T07:42:11;15.50;99.90
39919;DHT22;25589;51.552;13.424;2023-05-15T07:44:37;15.60;99.90
39919;DHT22;25589;51.552;13.424;2023-05-15T07:47:02;16.00;99.90
39919;DHT22;25589;51.552;13.424;2023-05-15T07:49:28;15.90;99.90
39919;DHT22;25589;51.552;13.424;2023-05-15T07:51:53;15.70;99.90
39919;DHT22;25589;51.552;13.424;2023-05-15T07:54:19;15.70;99.90
39919;DHT22;25589;51.552;13.424;2023-05-15T07:56:45;15.60;99.90
39919;DHT22;25589;51.552;13.424;2023-05-15T07:59:10;15.60;99.90
39919;DHT22;25589;51.552;13.424;2023-05-15T08:01:36;15.60;99.90
39919;DHT22;25589;51.552;13.424;2023-05-15T08:04:06;15.70;99.90
39919;DHT22;25589;51.552;13.424;2023-05-15T08:06:31;15.80;99.90
39919;DHT22;25589;51.552;13.424;2023-05-15T08:08:58;16.00;99.90
39919;DHT22;25589;51.552;13.424;2023-05-15T08:11:23;16.10;99.90
39919;DHT22;25589;51.552;13.424;2023-05-15T08:13:49;16.10;99.90
39919;DHT22;25589;51.552;13.424;2023-05-15T08:16:14;16.10;99.90
39919;DHT22;25589;51.552;13.424;2023-05-15T08:18:40;16.20;99.90
39919;DHT22;25589;51.552;13.424;2023-05-15T08:21:06;16.30;99.90
39919;DHT22;25589;51.552;13.424;2023-05-15T08:23:31;16.50;99.90
39919;DHT22;25589;51.552;13.424;2023-05-15T08:25:57;16.70;99.90
39919;DHT22;25589;51.552;13.424;2023-05-15T08:28:23;16.60;99.90
39919;DHT22;25589;51.552;13.424;2023-05-15T08:30:49;16.90;99.90
39919;DHT22;25589;51.552;13.424;2023-05-15T08:33:14;17.10;99.90
39919;DHT22;25589;51.552;13.424;2023-05-15T08:35:40;17.20;99.90
39919;DHT22;25589;51.552;13.424;2023-05-15T08:38:05;17.50;99.90
39919;DHT22;25589;51.552;13.424;2023-05-15T08:40:31;18.80;99.90
39919;DHT22;25589;51.552;13.424;2023-05-15T08:43:02;17.60;99.90
39919;DHT22;25589;51.552;13.424;2023-05-15T08:45:28;17.50;99.90
39919;DHT22;25589;51.552;13.424;2023-05-15T08:47:54;17.80;99.90
39919;DHT22;25589;51.552;13.424;2023-05-15T08:50:20;18.00;99.90
39919;DHT22;25589;51.552;13.424;2023-05-15T08:52:47;18.00;99.90
39919;DHT22;25589;51.552;13.424;2023-05-15T08:55:14;18.10;99.90
39919;DHT22;25589;51.552;13.424;2023-05-15T08:57:40;18.30;99.90
39919;DHT22;25589;51.552;13.424;2023-05-15T09:00:06;18.30;99.90
39919;DHT22;25589;51.552;13.424;2023-05-15T09:02:42;18.70;99.90
39919;DHT22;25589;51.552;13.424;2023-05-15T09:05:08;18.90;99.90
39919;DHT22;25589;51.552;13.424;2023-05-15T09:07:35;19.20;99.90
39919;DHT22;25589;51.552;13.424;2023-05-15T09:10:02;19.00;99.90
39919;DHT22;25589;51.552;13.424;2023-05-15T09:12:31;19.10;99.90
39919;DHT22;25589;51.552;13.424;2023-05-15T09:15:26;19.20;99.90
39919;DHT22;25589;51.552;13.424;2023-05-15T09:17:53;19.50;99.90
39919;DHT22;25589;51.552;13.424;2023-05-15T09:20:37;19.90;99.90
39919;DHT22;25589;51.552;13.424;2023-05-15T09:23:04;19.90;99.90
39919;DHT22;25589;51.552;13.424;2023-05-15T09:28:02;20.00;99.90
39919;DHT22;25589;51.552;13.424;2023-05-15T09:30:28;20.00;99.90
39919;DHT22;25589;51.552;13.424;2023-05-15T09:32:59;20.30;99.90
39919;DHT22;25589;51.552;13.424;2023-05-15T09:35:36;20.60;99.90
39919;DHT22;25589;51.552;13.424;2023-05-15T09:38:06;20.70;99.90
39919;DHT22;25589;51.552;13.424;2023-05-15T09:40:32;20.80;99.90
39919;DHT22;25589;51.552;13.424;2023-05-15T09:42:58;20.90;99.90
39919;DHT22;25589;51.552;13.424;2023-05-15T09:45:24;20.70;99.30
39919;DHT22;25589;51.552;13.424;2023-05-15T09:47:51;20.80;98.40
39919;DHT22;25589;51.552;13.424;2023-05-15T09:50:21;20.80;98.40
39919;DHT22;25589;51.552;13.424;2023-05-15T09:52:48;20.80;98.40
39919;DHT22;25589;51.552;13.424;2023-05-15T09:55:18;21.10;97.80
39919;DHT22;25589;51.552;13.424;2023-05-15T09:58:02;21.20;97.50
39919;DHT22;25589;51.552;13.424;2023-05-15T10:00:28;21.30;96.60
39919;DHT22;25589;51.552;13.424;2023-05-15T10:02:57;21.30;97.50
39919;DHT22;25589;51.552;13.424;2023-05-15T10:05:25;21.50;97.00
39919;DHT22;25589;51.552;13.424;2023-05-15T10:07:53;21.80;96.80
39919;DHT22;25589;51.552;13.424;2023-05-15T10:10:19;22.00;96.60
39919;DHT22;25589;51.552;13.424;2023-05-15T10:12:45;22.00;95.60
39919;DHT22;25589;51.552;13.424;2023-05-15T10:15:11;21.90;94.70
39919;DHT22;25589;51.552;13.424;2023-05-15T10:17:38;21.90;95.20
39919;DHT22;25589;51.552;13.424;2023-05-15T10:20:05;22.20;94.10
39919;DHT22;25589;51.552;13.424;2023-05-15T10:22:37;22.20;93.30
39919;DHT22;25589;51.552;13.424;2023-05-15T10:25:12;22.30;93.80
39919;DHT22;25589;51.552;13.424;2023-05-15T10:27:40;22.10;93.50
39919;DHT22;25589;51.552;13.424;2023-05-15T10:30:08;22.00;93.70
39919;DHT22;25589;51.552;13.424;2023-05-15T10:32:35;22.10;93.70
39919;DHT22;25589;51.552;13.424;2023-05-15T10:35:02;22.30;93.80
39919;DHT22;25589;51.552;13.424;2023-05-15T10:37:28;22.20;93.20
39919;DHT22;25589;51.552;13.424;2023-05-15T10:39:55;22.30;90.70
39919;DHT22;25589;51.552;13.424;2023-05-15T10:42:24;22.50;90.70
39919;DHT22;25589;51.552;13.424;2023-05-15T10:44:52;22.40;90.20
39919;DHT22;25589;51.552;13.424;2023-05-15T10:47:17;22.40;86.40
39919;DHT22;25589;51.552;13.424;2023-05-15T10:49:43;22.40;86.30
39919;DHT22;25589;51.552;13.424;2023-05-15T10:52:08;22.40;88.00
39919;DHT22;25589;51.552;13.424;2023-05-15T10:54:34;22.40;87.00
39919;DHT22;25589;51.552;13.424;2023-05-15T10:56:59;22.30;84.30
39919;DHT22;25589;51.552;13.424;2023-05-15T10:59:32;22.20;80.80
39919;DHT22;25589;51.552;13.424;2023-05-15T11:02:24;22.30;81.40
39919;DHT22;25589;51.552;13.424;2023-05-15T11:05:00;22.40;81.30
39919;DHT22;25589;51.552;13.424;2023-05-15T11:07:26;22.70;81.90
39919;DHT22;25589;51.552;13.424;2023-05-15T11:09:53;22.60;81.40
39919;DHT22;25589;51.552;13.424;2023-05-15T11:12:19;22.40;82.30
39919;DHT22;25589;51.552;13.424;2023-05-15T11:17:22;22.60;82.80
39919;DHT22;25589;51.552;13.424;2023-05-15T11:25:00;22.90;82.00
39919;DHT22;25589;51.552;13.424;2023-05-15T11:27:29;22.90;79.10
39919;DHT22;25589;51.552;13.424;2023-05-15T11:30:22;22.60;79.20
39919;DHT22;25589;51.552;13.424;2023-05-15T11:33:00;22.50;79.00
39919;DHT22;25589;51.552;13.424;2023-05-15T11:38:00;22.70;79.50
39919;DHT22;25589;51.552;13.424;2023-05-15T11:40:32;22.80;79.00
39919;DHT22;25589;51.552;13.424;2023-05-15T11:43:18;22.60;80.40
39919;DHT22;25589;51.552;13.424;2023-05-15T11:45:46;22.60;81.10
39919;DHT22;25589;51.552;13.424;2023-05-15T11:48:14;22.70;79.10
39919;DHT22;25589;51.552;13.424;2023-05-15T11:50:40;22.50;80.10
39919;DHT22;25589;51.552;13.424;2023-05-15T11:53:07;22.50;80.80
39919;DHT22;25589;51.552;13.424;2023-05-15T11:55:35;22.50;79.90
39919;DHT22;25589;51.552;13.424;2023-05-15T11:58:02;22.60;79.60
39919;DHT22;25589;51.552;13.424;2023-05-15T12:00:29;22.60;78.60
39919;DHT22;25589;51.552;13.424;2023-05-15T12:02:55;22.80;77.00
39919;DHT22;25589;51.552;13.424;2023-05-15T12:05:21;22.90;78.50
39919;DHT22;25589;51.552;13.424;2023-05-15T12:07:47;22.90;77.10
39919;DHT22;25589;51.552;13.424;2023-05-15T12:10:13;22.90;77.20
39919;DHT22;25589;51.552;13.424;2023-05-15T12:12:41;23.10;77.10
39919;DHT22;25589;51.552;13.424;2023-05-15T12:15:11;23.10;76.90
39919;DHT22;25589;51.552;13.424;2023-05-15T12:17:38;23.00;75.80
39919;DHT22;25589;51.552;13.424;2023-05-15T12:20:06;22.90;76.00
39919;DHT22;25589;51.552;13.424;2023-05-15T12:22:39;22.80;76.30
39919;DHT22;25589;51.552;13.424;2023-05-15T12:25:06;22.60;76.00
39919;DHT22;25589;51.552;13.424;2023-05-15T12:27:33;22.40;77.10
39919;DHT22;25589;51.552;13.424;2023-05-15T12:30:00;22.10;77.60
39919;DHT22;25589;51.552;13.424;2023-05-15T12:32:26;22.00;79.00
39919;DHT22;25589;51.552;13.424;2023-05-15T12:34:52;21.80;81.40
39919;DHT22;25589;51.552;13.424;2023-05-15T12:37:18;21.40;86.50
39919;DHT22;25589;51.552;13.424;2023-05-15T12:39:53;21.10;91.40
39919;DHT22;25589;51.552;13.424;2023-05-15T12:42:19;20.80;93.50
39919;DHT22;25589;51.552;13.424;2023-05-15T12:44:44;20.50;93.30
39919;DHT22;25589;51.552;13.424;2023-05-15T12:47:13;20.00;93.50
39919;DHT22;25589;51.552;13.424;2023-05-15T12:49:40;19.90;94.50
39919;DHT22;25589;51.552;13.424;2023-05-15T12:52:08;19.80;95.30
39919;DHT22;25589;51.552;13.424;2023-05-15T12:54:40;20.00;96.60
39919;DHT22;25589;51.552;13.424;2023-05-15T12:57:07;19.70;97.60
39919;DHT22;25589;51.552;13.424;2023-05-15T12:59:33;20.00;98.30
39919;DHT22;25589;51.552;13.424;2023-05-15T13:01:59;20.90;99.90
39919;DHT22;25589;51.552;13.424;2023-05-15T13:04:24;20.70;99.90
39919;DHT22;25589;51.552;13.424;2023-05-15T13:06:50;22.50;99.90
39919;DHT22;25589;51.552;13.424;2023-05-15T13:09:21;21.50;99.90
39919;DHT22;25589;51.552;13.424;2023-05-15T13:11:47;21.90;99.90
39919;DHT22;25589;51.552;13.424;2023-05-15T13:14:15;22.30;99.90
39919;DHT22;25589;51.552;13.424;2023-05-15T13:16:43;22.60;99.90
39919;DHT22;25589;51.552;13.424;2023-05-15T13:19:09;22.90;96.90
39919;DHT22;25589;51.552;13.424;2023-05-15T13:21:35;23.10;95.10
39919;DHT22;25589;51.552;13.424;2023-05-15T13:24:00;23.60;95.00
39919;DHT22;25589;51.552;13.424;2023-05-15T13:26:26;23.80;91.60
39919;DHT22;25589;51.552;13.424;2023-05-15T13:28:51;23.60;88.70
39919;DHT22;25589;51.552;13.424;2023-05-15T13:31:17;23.70;86.00
39919;DHT22;25589;51.552;13.424;2023-05-15T13:33:42;23.80;85.00
39919;DHT22;25589;51.552;13.424;2023-05-15T13:36:08;24.40;82.50
39919;DHT22;25589;51.552;13.424;2023-05-15T13:38:34;24.40;81.60
39919;DHT22;25589;51.552;13.424;2023-05-15T13:41:00;24.60;80.40
39919;DHT22;25589;51.552;13.424;2023-05-15T13:43:26;24.80;79.80
39919;DHT22;25589;51.552;13.424;2023-05-15T13:45:52;24.80;77.70
39919;DHT22;25589;51.552;13.424;2023-05-15T13:48:17;24.50;78.90
39919;DHT22;25589;51.552;13.424;2023-05-15T13:50:43;24.10;86.40
39919;DHT22;25589;51.552;13.424;2023-05-15T13:53:10;23.70;92.30
39919;DHT22;25589;51.552;13.424;2023-05-15T13:55:36;23.20;93.80
39919;DHT22;25589;51.552;13.424;2023-05-15T13:58:03;23.10;96.80
39919;DHT22;25589;51.552;13.424;2023-05-15T14:00:28;23.00;99.90
39919;DHT22;25589;51.552;13.424;2023-05-15T14:02:54;23.00;99.90
39919;DHT22;25589;51.552;13.424;2023-05-15T14:05:19;22.90;99.90
39919;DHT22;25589;51.552;13.424;2023-05-15T14:07:45;23.10;99.90
39919;DHT22;25589;51.552;13.424;2023-05-15T14:10:11;23.40;99.90
39919;DHT22;25589;51.552;13.424;2023-05-15T14:12:37;24.00;99.90
39919;DHT22;25589;51.552;13.424;2023-05-15T14:15:03;23.90;99.90
39919;DHT22;25589;51.552;13.424;2023-05-15T14:17:28;24.00;99.00
39919;DHT22;25589;51.552;13.424;2023-05-15T14:19:54;23.60;96.00
39919;DHT22;25589;51.552;13.424;2023-05-15T14:22:20;23.50;94.90
39919;DHT22;25589;51.552;13.424;2023-05-15T14:24:49;23.60;92.40
39919;DHT22;25589;51.552;13.424;2023-05-15T14:27:15;23.50;91.50
39919;DHT22;25589;51.552;13.424;2023-05-15T14:29:40;23.50;90.90
39919;DHT22;25589;51.552;13.424;2023-05-15T14:32:06;23.90;91.40
39919;DHT22;25589;51.552;13.424;2023-05-15T14:34:32;24.20;88.70
39919;DHT22;25589;51.552;13.424;2023-05-15T14:36:58;23.50;84.30
39919;DHT22;25589;51.552;13.424;2023-05-15T14:39:23;23.50;87.80
39919;DHT22;25589;51.552;13.424;2023-05-15T14:41:49;23.70;87.20
39919;DHT22;25589;51.552;13.424;2023-05-15T14:44:14;23.80;86.70
39919;DHT22;25589;51.552;13.424;2023-05-15T14:46:41;24.30;85.70
39919;DHT22;25589;51.552;13.424;2023-05-15T14:49:07;24.60;81.20
39919;DHT22;25589;51.552;13.424;2023-05-15T14:51:32;24.70;81.20
39919;DHT22;25589;51.552;13.424;2023-05-15T14:53:58;24.60;81.00
39919;DHT22;25589;51.552;13.424;2023-05-15T14:56:23;24.50;82.30
39919;DHT22;25589;51.552;13.424;2023-05-15T14:58:50;24.10;81.80
39919;DHT22;25589;51.552;13.424;2023-05-15T15:01:16;23.80;80.90
39919;DHT22;25589;51.552;13.424;2023-05-15T15:03:41;23.90;80.90
39919;DHT22;25589;51.552;13.424;2023-05-15T15:06:07;24.10;81.20
39919;DHT22;25589;51.552;13.424;2023-05-15T15:08:33;24.30;79.30
39919;DHT22;25589;51.552;13.424;2023-05-15T15:10:58;24.30;81.10
39919;DHT22;25589;51.552;13.424;2023-05-15T15:13:24;23.70;81.80
39919;DHT22;25589;51.552;13.424;2023-05-15T15:15:51;23.30;82.80
39919;DHT22;25589;51.552;13.424;2023-05-15T15:18:17;22.90;84.60
39919;DHT22;25589;51.552;13.424;2023-05-15T15:20:42;22.40;85.70
39919;DHT22;25589;51.552;13.424;2023-05-15T15:23:08;22.30;86.60
39919;DHT22;25589;51.552;13.424;2023-05-15T15:25:34;22.30;88.80
39919;DHT22;25589;51.552;13.424;2023-05-15T15:28:00;22.00;90.20
39919;DHT22;25589;51.552;13.424;2023-05-15T15:30:26;21.90;90.90
39919;DHT22;25589;51.552;13.424;2023-05-15T15:32:51;21.80;91.70
39919;DHT22;25589;51.552;13.424;2023-05-15T15:35:19;21.80;92.30
39919;DHT22;25589;51.552;13.424;2023-05-15T15:37:44;21.70;93.10
39919;DHT22;25589;51.552;13.424;2023-05-15T15:40:10;21.50;94.10
39919;DHT22;25589;51.552;13.424;2023-05-15T15:42:36;21.70;94.40
39919;DHT22;25589;51.552;13.424;2023-05-15T15:45:02;21.50;94.90
39919;DHT22;25589;51.552;13.424;2023-05-15T15:47:28;21.30;96.10